createdAt,value
2018-12-10T00:01:57.276Z,3.80
2018-12-10T00:04:24.529Z,3.80
2018-12-10T00:06:51.736Z,3.90
2018-12-10T00:09:19.463Z,3.90
2018-12-10T00:11:46.679Z,3.90
2018-12-10T00:14:14.014Z,3.90
2018-12-10T00:16:41.560Z,4.00
2018-12-10T00:19:09.255Z,4.00
2018-12-10T00:21:36.441Z,4.00
2018-12-10T00:24:03.828Z,4.00
2018-12-10T00:26:31.149Z,4.00
2018-12-10T00:28:58.365Z,4.00
2018-12-10T00:31:25.581Z,3.90
2018-12-10T00:33:53.442Z,4.00
2018-12-10T00:36:20.754Z,4.00
2018-12-10T00:38:47.945Z,4.00
2018-12-10T00:41:15.191Z,4.00
2018-12-10T00:43:42.414Z,4.00
2018-12-10T00:46:09.724Z,3.90
2018-12-10T00:48:37.097Z,3.90
2018-12-10T00:51:04.454Z,3.90
2018-12-10T00:53:31.677Z,4.00
2018-12-10T00:55:58.971Z,4.00
2018-12-10T00:58:26.256Z,4.00
2018-12-10T01:00:53.591Z,4.00
2018-12-10T01:03:20.818Z,4.00
2018-12-10T01:05:48.150Z,4.10
2018-12-10T01:08:15.461Z,4.00
2018-12-10T01:10:42.713Z,4.00
2018-12-10T01:13:09.932Z,4.00
2018-12-10T01:15:37.118Z,4.00
2018-12-10T01:18:04.349Z,4.00
2018-12-10T01:20:31.649Z,4.00
2018-12-10T01:22:58.960Z,4.10
2018-12-10T01:25:26.239Z,4.00
2018-12-10T01:27:53.449Z,4.10
2018-12-10T01:30:20.897Z,4.00
2018-12-10T01:32:48.129Z,4.10
2018-12-10T01:35:15.468Z,4.10
2018-12-10T01:37:42.699Z,4.10
2018-12-10T01:40:09.976Z,4.00
2018-12-10T01:42:37.294Z,4.10
2018-12-10T01:45:06.128Z,4.10
2018-12-10T01:47:33.470Z,4.00
2018-12-10T01:50:00.808Z,4.00
2018-12-10T01:52:28.021Z,4.00
2018-12-10T01:54:55.284Z,4.00
2018-12-10T01:57:22.493Z,4.10
2018-12-10T01:59:50.025Z,4.10
2018-12-10T02:02:17.262Z,4.20
2018-12-10T02:04:44.462Z,4.20
2018-12-10T02:07:11.697Z,4.20
2018-12-10T02:09:38.933Z,4.30
2018-12-10T02:12:06.129Z,4.30
2018-12-10T02:14:33.333Z,4.30
2018-12-10T02:17:00.597Z,4.40
2018-12-10T02:19:28.126Z,4.30
2018-12-10T02:21:55.345Z,4.30
2018-12-10T02:24:22.579Z,4.30
2018-12-10T02:26:49.877Z,4.30
2018-12-10T02:29:17.122Z,4.30
2018-12-10T02:31:44.537Z,4.40
2018-12-10T02:34:11.879Z,4.30
2018-12-10T02:36:39.200Z,4.30
2018-12-10T02:39:06.669Z,4.30
2018-12-10T02:41:34.017Z,4.30
2018-12-10T02:44:01.680Z,4.30
2018-12-10T02:46:29.055Z,4.40
2018-12-10T02:48:56.275Z,4.30
2018-12-10T02:51:23.605Z,4.30
2018-12-10T02:53:50.974Z,4.20
2018-12-10T02:56:18.235Z,4.20
2018-12-10T02:58:45.444Z,4.20
2018-12-10T03:01:12.752Z,4.10
2018-12-10T03:03:40.079Z,4.10
2018-12-10T03:06:07.284Z,4.10
2018-12-10T03:08:34.535Z,4.10
2018-12-10T03:11:01.765Z,4.00
2018-12-10T03:13:29.008Z,4.00
2018-12-10T03:15:56.263Z,4.00
2018-12-10T03:18:23.490Z,3.90
2018-12-10T03:20:52.841Z,3.90
2018-12-10T03:23:19.968Z,4.00
2018-12-10T03:25:47.189Z,4.00
2018-12-10T03:28:14.439Z,3.90
2018-12-10T03:30:41.719Z,4.00
2018-12-10T03:33:08.928Z,3.90
2018-12-10T03:35:36.155Z,4.00
2018-12-10T03:38:03.516Z,4.10
2018-12-10T03:40:30.934Z,4.00
2018-12-10T03:42:58.132Z,4.00
2018-12-10T03:45:25.386Z,4.00
2018-12-10T03:47:52.600Z,3.90
2018-12-10T03:50:19.786Z,3.90
2018-12-10T03:52:47.019Z,3.90
2018-12-10T03:55:14.357Z,3.80
2018-12-10T03:57:41.578Z,3.80
2018-12-10T04:00:08.970Z,3.80
2018-12-10T04:02:36.253Z,3.70
2018-12-10T04:05:04.141Z,3.60
2018-12-10T04:07:31.425Z,3.60
2018-12-10T04:09:58.635Z,3.60
2018-12-10T04:12:25.849Z,3.60
2018-12-10T04:14:53.106Z,3.60
2018-12-10T04:17:20.320Z,3.60
2018-12-10T04:19:47.646Z,3.60
2018-12-10T04:22:14.887Z,3.70
2018-12-10T04:24:42.130Z,3.70
2018-12-10T04:27:09.349Z,3.70
2018-12-10T04:29:36.620Z,3.70
2018-12-10T04:32:03.972Z,3.70
2018-12-10T04:34:31.184Z,3.70
2018-12-10T04:36:58.372Z,3.70
2018-12-10T04:39:25.591Z,3.60
2018-12-10T04:41:52.825Z,3.60
2018-12-10T04:44:20.041Z,3.60
2018-12-10T04:46:47.279Z,3.50
2018-12-10T04:49:14.468Z,3.50
2018-12-10T04:51:41.696Z,3.50
2018-12-10T04:54:08.916Z,3.50
2018-12-10T04:56:36.153Z,3.70
2018-12-10T04:59:03.404Z,3.80
2018-12-10T05:01:30.615Z,3.90
2018-12-10T05:03:57.812Z,4.00
2018-12-10T05:06:25.049Z,4.00
2018-12-10T05:08:52.253Z,4.00
2018-12-10T05:11:19.461Z,3.90
2018-12-10T05:13:46.700Z,3.90
2018-12-10T05:16:13.920Z,3.90
2018-12-10T05:18:41.243Z,3.80
2018-12-10T05:21:08.496Z,3.80
2018-12-10T05:23:35.764Z,3.80
2018-12-10T05:26:03.092Z,3.80
2018-12-10T05:28:30.343Z,3.90
2018-12-10T05:30:57.582Z,3.90
2018-12-10T05:33:24.885Z,4.00
2018-12-10T05:35:52.152Z,4.00
2018-12-10T05:38:19.595Z,4.00
2018-12-10T05:40:46.813Z,4.00
2018-12-10T05:43:14.054Z,4.00
2018-12-10T05:45:41.265Z,4.00
2018-12-10T05:48:08.473Z,3.90
2018-12-10T05:50:35.796Z,3.90
2018-12-10T05:53:03.113Z,4.00
2018-12-10T05:55:30.325Z,4.00
2018-12-10T05:57:57.532Z,4.00
2018-12-10T06:00:24.889Z,4.00
2018-12-10T06:02:52.240Z,4.10
2018-12-10T06:05:19.462Z,4.10
2018-12-10T06:07:46.678Z,4.10
2018-12-10T06:10:13.918Z,4.00
2018-12-10T06:12:41.160Z,4.00
2018-12-10T06:15:08.616Z,4.00
2018-12-10T06:17:36.632Z,4.00
2018-12-10T06:20:04.568Z,4.10
2018-12-10T06:22:31.830Z,4.20
2018-12-10T06:24:59.217Z,4.20
2018-12-10T06:27:26.494Z,4.20
2018-12-10T06:29:53.734Z,4.20
2018-12-10T06:32:21.052Z,4.20
2018-12-10T06:34:48.450Z,4.30
2018-12-10T06:37:15.694Z,4.30
2018-12-10T06:39:43.073Z,4.20
2018-12-10T06:42:10.372Z,4.20
2018-12-10T06:44:37.751Z,4.20
2018-12-10T06:47:04.997Z,4.20
2018-12-10T06:49:32.305Z,4.10
2018-12-10T06:51:59.686Z,4.10
2018-12-10T06:54:26.955Z,4.10
2018-12-10T06:56:54.226Z,4.00
2018-12-10T06:59:21.493Z,4.00
2018-12-10T07:01:49.501Z,4.00
2018-12-10T07:04:16.806Z,4.00
2018-12-10T07:06:44.209Z,4.00
2018-12-10T07:09:11.422Z,4.00
2018-12-10T07:11:38.742Z,3.90
2018-12-10T07:14:05.993Z,3.90
2018-12-10T07:16:33.782Z,4.00
2018-12-10T07:19:01.229Z,3.90
2018-12-10T07:21:28.508Z,3.90
2018-12-10T07:23:55.894Z,3.90
2018-12-10T07:26:23.316Z,3.90
2018-12-10T07:28:50.774Z,4.00
2018-12-10T07:31:18.102Z,4.00
2018-12-10T07:33:45.754Z,4.00
2018-12-10T07:36:13.048Z,4.10
2018-12-10T07:38:40.302Z,4.10
2018-12-10T07:41:07.700Z,4.20
2018-12-10T07:43:34.900Z,4.10
2018-12-10T07:46:02.164Z,4.10
2018-12-10T07:48:29.440Z,3.90
2018-12-10T07:50:56.668Z,3.90
2018-12-10T07:53:23.916Z,3.90
2018-12-10T07:55:51.197Z,4.00
2018-12-10T07:58:18.440Z,4.00
2018-12-10T08:00:45.678Z,4.00
2018-12-10T08:03:12.952Z,4.00
2018-12-10T08:05:40.236Z,4.00
2018-12-10T08:08:07.694Z,4.00
2018-12-10T08:10:34.982Z,4.10
2018-12-10T08:13:02.198Z,4.10
2018-12-10T08:15:29.440Z,4.10
2018-12-10T08:17:56.696Z,4.10
2018-12-10T08:20:24.030Z,4.20
2018-12-10T08:22:51.365Z,4.30
2018-12-10T08:25:18.729Z,4.40
2018-12-10T08:27:45.960Z,4.40
2018-12-10T08:30:13.314Z,4.50
2018-12-10T08:32:40.619Z,4.60
2018-12-10T08:35:08.021Z,4.60
2018-12-10T08:37:35.276Z,4.60
2018-12-10T08:40:02.788Z,4.60
2018-12-10T08:42:30.001Z,4.60
2018-12-10T08:44:57.234Z,4.60
2018-12-10T08:47:24.518Z,4.60
2018-12-10T08:49:51.879Z,4.60
2018-12-10T08:52:19.453Z,4.60
2018-12-10T08:54:47.073Z,4.60
2018-12-10T08:57:14.730Z,4.50
2018-12-10T08:59:42.253Z,4.40
2018-12-10T09:02:09.522Z,4.50
2018-12-10T09:04:36.797Z,4.80
2018-12-10T09:07:04.118Z,4.90
2018-12-10T09:09:31.409Z,4.90
2018-12-10T09:11:58.895Z,4.90
2018-12-10T09:14:26.104Z,4.90
2018-12-10T09:16:53.512Z,4.90
2018-12-10T09:19:20.803Z,4.90
2018-12-10T09:21:48.135Z,4.90
2018-12-10T09:24:15.413Z,4.80
2018-12-10T09:26:42.818Z,4.90
2018-12-10T09:29:10.038Z,4.90
2018-12-10T09:31:37.333Z,5.00
2018-12-10T09:34:04.588Z,5.00
2018-12-10T09:36:31.851Z,5.00
2018-12-10T09:38:59.148Z,4.90
2018-12-10T09:41:26.490Z,4.90
2018-12-10T09:43:53.735Z,4.90
2018-12-10T09:46:27.474Z,4.90
2018-12-10T09:48:50.334Z,5.00
2018-12-10T09:51:17.582Z,5.00
2018-12-10T09:53:44.947Z,5.10
2018-12-10T09:56:12.282Z,5.10
2018-12-10T09:58:39.515Z,5.20
2018-12-10T10:01:06.799Z,5.20
2018-12-10T10:03:34.161Z,5.30
2018-12-10T10:06:01.509Z,5.40
2018-12-10T10:08:28.912Z,5.50
2018-12-10T10:10:56.264Z,5.50
2018-12-10T10:13:23.477Z,5.50
2018-12-10T10:15:50.899Z,5.40
2018-12-10T10:18:18.160Z,5.40
2018-12-10T10:20:45.393Z,5.40
2018-12-10T10:23:12.736Z,5.40
2018-12-10T10:25:39.983Z,5.30
2018-12-10T10:28:07.231Z,5.30
2018-12-10T10:30:34.652Z,5.30
2018-12-10T10:33:01.871Z,5.30
2018-12-10T10:35:29.126Z,5.30
2018-12-10T10:37:56.520Z,5.30
2018-12-10T10:40:24.054Z,5.30
2018-12-10T10:42:51.270Z,5.50
2018-12-10T10:45:18.543Z,5.60
2018-12-10T10:47:45.817Z,5.60
2018-12-10T10:50:13.057Z,5.70
2018-12-10T10:52:40.422Z,5.70
2018-12-10T10:55:07.748Z,5.80
2018-12-10T10:57:35.079Z,5.90
2018-12-10T11:00:02.636Z,5.80
2018-12-10T11:02:35.797Z,5.70
2018-12-10T11:05:03.279Z,5.60
2018-12-10T11:07:30.502Z,5.60
2018-12-10T11:09:57.713Z,5.70
2018-12-10T11:12:24.971Z,5.90
2018-12-10T11:14:52.196Z,5.80
2018-12-10T11:17:19.532Z,5.80
2018-12-10T11:19:47.622Z,5.90
2018-12-10T11:22:14.937Z,5.90
2018-12-10T11:24:42.184Z,5.90
2018-12-10T11:27:09.424Z,5.80
2018-12-10T11:29:36.801Z,5.90
2018-12-10T11:32:04.084Z,6.00
2018-12-10T11:34:31.417Z,6.00
2018-12-10T11:36:58.808Z,5.90
2018-12-10T11:39:26.029Z,5.90
2018-12-10T11:41:53.393Z,5.90
2018-12-10T11:44:20.750Z,5.90
2018-12-10T11:46:48.170Z,6.00
2018-12-10T11:49:15.541Z,5.90
2018-12-10T11:51:42.805Z,5.80
2018-12-10T11:54:10.032Z,5.80
2018-12-10T11:56:37.322Z,5.80
2018-12-10T11:59:04.586Z,5.90
2018-12-10T12:01:31.810Z,6.00
2018-12-10T12:03:59.076Z,6.00
2018-12-10T12:06:26.349Z,5.90
2018-12-10T12:08:53.780Z,5.80
2018-12-10T12:11:21.139Z,5.80
2018-12-10T12:13:49.101Z,5.90
2018-12-10T12:16:16.330Z,5.90
2018-12-10T12:18:43.593Z,6.00
2018-12-10T12:21:10.881Z,6.00
2018-12-10T12:23:38.104Z,5.80
2018-12-10T12:26:05.350Z,5.80
2018-12-10T12:28:32.583Z,5.60
2018-12-10T12:30:59.818Z,5.50
2018-12-10T12:33:27.220Z,5.40
2018-12-10T12:35:54.457Z,5.40
2018-12-10T12:38:21.707Z,5.30
2018-12-10T12:40:49.072Z,5.20
2018-12-10T12:43:16.441Z,5.20
2018-12-10T12:45:43.713Z,5.20
2018-12-10T12:48:10.959Z,5.20
2018-12-10T12:50:38.203Z,5.20
2018-12-10T12:53:05.579Z,5.20
2018-12-10T12:55:32.848Z,5.40
2018-12-10T12:58:00.114Z,5.50
2018-12-10T13:00:27.590Z,5.60
2018-12-10T13:02:55.088Z,5.60
2018-12-10T13:05:22.550Z,5.70
2018-12-10T13:07:49.820Z,5.80
2018-12-10T13:10:17.302Z,5.80
2018-12-10T13:12:44.541Z,5.70
2018-12-10T13:15:11.795Z,5.60
2018-12-10T13:17:39.053Z,5.50
2018-12-10T13:20:06.585Z,5.50
2018-12-10T13:22:33.836Z,5.40
2018-12-10T13:25:01.105Z,5.40
2018-12-10T13:27:28.349Z,5.30
2018-12-10T13:29:55.594Z,5.30
2018-12-10T13:32:22.864Z,5.20
2018-12-10T13:34:50.120Z,5.20
2018-12-10T13:37:17.575Z,5.10
2018-12-10T13:39:44.827Z,5.10
2018-12-10T13:42:12.075Z,5.20
2018-12-10T13:44:39.309Z,5.20
2018-12-10T13:47:06.621Z,5.20
2018-12-10T13:49:33.870Z,5.20
2018-12-10T13:52:01.154Z,5.20
2018-12-10T13:54:28.490Z,5.10
2018-12-10T13:56:55.846Z,5.20
2018-12-10T13:59:23.104Z,5.10
2018-12-10T14:01:50.445Z,5.20
2018-12-10T14:04:21.992Z,5.10
2018-12-10T14:06:49.361Z,5.10
2018-12-10T14:09:16.622Z,5.10
2018-12-10T14:11:43.973Z,5.00
2018-12-10T14:14:11.246Z,5.00
2018-12-10T14:16:38.529Z,4.90
2018-12-10T14:19:06.004Z,4.80
2018-12-10T14:21:33.225Z,4.70
2018-12-10T14:24:00.605Z,4.60
2018-12-10T14:26:28.068Z,4.60
2018-12-10T14:28:55.309Z,4.60
2018-12-10T14:31:27.275Z,4.60
2018-12-10T14:33:52.555Z,4.60
2018-12-10T14:36:19.924Z,4.50
2018-12-10T14:38:47.322Z,4.50
2018-12-10T14:41:14.660Z,4.40
2018-12-10T14:43:41.983Z,4.30
2018-12-10T14:46:09.396Z,4.40
2018-12-10T14:48:36.722Z,4.40
2018-12-10T14:51:04.078Z,4.40
2018-12-10T14:53:31.371Z,4.40
2018-12-10T14:55:58.586Z,4.40
2018-12-10T14:58:25.825Z,4.40
2018-12-10T15:00:53.351Z,4.40
2018-12-10T15:03:20.558Z,4.40
2018-12-10T15:05:47.896Z,4.40
2018-12-10T15:08:15.296Z,4.30
2018-12-10T15:10:42.549Z,4.40
2018-12-10T15:13:09.791Z,4.40
2018-12-10T15:15:37.056Z,4.50
2018-12-10T15:18:04.406Z,4.50
2018-12-10T15:20:31.632Z,4.50
2018-12-10T15:22:58.885Z,4.50
2018-12-10T15:25:26.149Z,4.60
2018-12-10T15:27:53.485Z,4.60
2018-12-10T15:30:20.758Z,4.50
2018-12-10T15:32:47.971Z,4.60
2018-12-10T15:35:15.347Z,4.60
2018-12-10T15:37:42.605Z,4.60
2018-12-10T15:40:09.850Z,4.60
2018-12-10T15:42:37.122Z,4.60
2018-12-10T15:45:05.904Z,4.60
2018-12-10T15:47:33.100Z,4.60
2018-12-10T15:50:00.353Z,4.70
2018-12-10T15:52:27.646Z,4.70
2018-12-10T15:54:54.900Z,4.80
2018-12-10T15:57:22.368Z,4.80
2018-12-10T15:59:49.711Z,4.90
2018-12-10T16:02:17.051Z,4.90
2018-12-10T16:04:44.376Z,5.00
2018-12-10T16:07:11.836Z,5.00
2018-12-10T16:09:39.036Z,5.00
2018-12-10T16:12:06.277Z,5.00
2018-12-10T16:14:33.542Z,5.00
2018-12-10T16:17:00.804Z,5.10
2018-12-10T16:19:28.170Z,5.20
2018-12-10T16:21:55.449Z,5.10
2018-12-10T16:24:22.697Z,5.00
2018-12-10T16:26:50.024Z,5.00
2018-12-10T16:29:17.316Z,5.10
2018-12-10T16:31:44.641Z,5.10
2018-12-10T16:34:11.866Z,5.10
2018-12-10T16:36:39.156Z,5.10
2018-12-10T16:39:08.493Z,5.10
2018-12-10T16:41:35.934Z,5.10
2018-12-10T16:44:03.788Z,5.10
2018-12-10T16:46:31.157Z,5.20
2018-12-10T16:48:58.658Z,5.20
2018-12-10T16:51:26.102Z,5.30
2018-12-10T16:53:53.336Z,5.30
2018-12-10T16:56:20.548Z,5.30
2018-12-10T16:58:48.080Z,5.30
2018-12-10T17:01:15.366Z,5.40
2018-12-10T17:03:42.758Z,5.40
2018-12-10T17:06:10.046Z,5.40
2018-12-10T17:08:37.439Z,5.40
2018-12-10T17:11:04.765Z,5.40
2018-12-10T17:13:32.014Z,5.40
2018-12-10T17:15:59.522Z,5.50
2018-12-10T17:18:26.908Z,5.60
2018-12-10T17:20:54.225Z,5.50
2018-12-10T17:23:21.644Z,5.50
2018-12-10T17:25:49.007Z,5.60
2018-12-10T17:28:16.284Z,5.50
2018-12-10T17:30:43.542Z,5.40
2018-12-10T17:33:10.785Z,5.30
2018-12-10T17:35:38.171Z,5.30
2018-12-10T17:38:05.485Z,5.30
2018-12-10T17:40:32.826Z,5.30
2018-12-10T17:43:00.214Z,5.30
2018-12-10T17:45:27.546Z,5.40
2018-12-10T17:47:54.898Z,5.40
2018-12-10T17:50:22.156Z,5.30
2018-12-10T17:52:49.393Z,5.30
2018-12-10T17:55:16.635Z,5.20
2018-12-10T17:57:44.144Z,5.20
2018-12-10T18:02:46.330Z,5.20
2018-12-10T18:05:13.693Z,5.20
2018-12-10T18:07:41.033Z,5.10
2018-12-10T18:10:08.506Z,5.20
2018-12-10T18:12:35.846Z,5.00
2018-12-10T18:15:03.746Z,4.90
2018-12-10T18:17:31.092Z,4.80
2018-12-10T18:19:58.360Z,4.70
2018-12-10T18:22:25.753Z,4.70
2018-12-10T18:24:53.184Z,4.60
2018-12-10T18:27:20.457Z,4.50
2018-12-10T18:29:47.974Z,4.50
2018-12-10T18:32:15.420Z,4.30
2018-12-10T18:34:42.753Z,4.20
2018-12-10T18:37:10.093Z,4.10
2018-12-10T18:39:37.358Z,4.10
2018-12-10T18:42:04.705Z,4.00
2018-12-10T18:44:31.995Z,4.00
2018-12-10T18:46:59.282Z,4.00
2018-12-10T18:49:26.506Z,4.00
2018-12-10T18:51:53.750Z,4.00
2018-12-10T18:54:21.149Z,3.90
2018-12-10T18:56:48.401Z,3.90
2018-12-10T18:59:15.754Z,3.80
2018-12-10T19:01:43.571Z,3.80
2018-12-10T19:04:10.792Z,3.80
2018-12-10T19:06:38.015Z,3.80
2018-12-10T19:09:06.850Z,3.80
2018-12-10T19:11:34.409Z,3.80
2018-12-10T19:14:01.808Z,3.90
2018-12-10T19:16:29.235Z,3.90
2018-12-10T19:18:56.560Z,4.10
2018-12-10T19:21:23.787Z,4.20
2018-12-10T19:23:51.170Z,4.30
2018-12-10T19:26:18.459Z,4.40
2018-12-10T19:28:45.685Z,4.60
2018-12-10T19:31:13.068Z,4.70
2018-12-10T19:33:40.307Z,4.70
2018-12-10T19:36:07.893Z,4.80
2018-12-10T19:38:35.148Z,4.70
2018-12-10T19:41:02.392Z,4.70
2018-12-10T19:43:29.663Z,4.80
2018-12-10T19:45:57.067Z,4.80
2018-12-10T19:48:24.315Z,4.90
2018-12-10T19:50:51.548Z,4.90
2018-12-10T19:53:18.787Z,4.90
2018-12-10T19:55:46.045Z,4.90
2018-12-10T19:58:13.409Z,4.80
2018-12-10T20:00:40.967Z,4.80
2018-12-10T20:03:08.432Z,4.70
2018-12-10T20:05:41.861Z,4.60
2018-12-10T20:08:09.217Z,4.60
2018-12-10T20:10:36.598Z,4.50
2018-12-10T20:13:03.860Z,4.30
2018-12-10T20:15:31.113Z,4.20
2018-12-10T20:17:58.313Z,4.10
2018-12-10T20:20:25.611Z,4.00
2018-12-10T20:22:52.844Z,3.90
2018-12-10T20:25:20.083Z,3.80
2018-12-10T20:27:47.367Z,3.60
2018-12-10T20:30:14.884Z,3.50
2018-12-10T20:32:42.109Z,3.40
2018-12-10T20:35:09.431Z,3.40
2018-12-10T20:37:36.874Z,3.30
2018-12-10T20:40:04.684Z,3.30
2018-12-10T20:42:31.935Z,3.20
2018-12-10T20:44:59.181Z,3.20
2018-12-10T20:47:26.479Z,3.10
2018-12-10T20:49:53.740Z,3.10
2018-12-10T20:52:20.992Z,3.10
2018-12-10T20:54:48.221Z,3.10
2018-12-10T20:57:15.553Z,3.10
2018-12-10T20:59:42.778Z,3.10
2018-12-10T21:02:10.016Z,3.10
2018-12-10T21:04:37.335Z,3.20
2018-12-10T21:07:04.905Z,3.20
2018-12-10T21:09:32.169Z,3.20
2018-12-10T21:11:59.562Z,3.20
2018-12-10T21:14:26.831Z,3.20
2018-12-10T21:16:54.062Z,3.20
2018-12-10T21:19:21.373Z,3.20
2018-12-10T21:21:48.841Z,3.20
2018-12-10T21:24:16.546Z,3.20
2018-12-10T21:26:43.872Z,3.30
2018-12-10T21:29:11.223Z,3.30
2018-12-10T21:31:38.475Z,3.30
2018-12-10T21:34:05.740Z,3.40
2018-12-10T21:36:33.097Z,3.40
2018-12-10T21:39:00.349Z,3.40
2018-12-10T21:41:27.609Z,3.50
2018-12-10T21:43:55.068Z,3.60
2018-12-10T21:46:22.394Z,3.50
2018-12-10T21:48:49.640Z,3.60
2018-12-10T21:51:16.879Z,3.60
2018-12-10T21:53:44.245Z,3.60
2018-12-10T21:56:11.528Z,3.60
2018-12-10T21:58:38.739Z,3.60
2018-12-10T22:01:05.981Z,3.60
2018-12-10T22:03:33.368Z,3.60
2018-12-10T22:06:00.771Z,3.60
2018-12-10T22:08:28.006Z,3.60
2018-12-10T22:10:55.298Z,3.60
2018-12-10T22:13:22.527Z,3.60
2018-12-10T22:15:49.761Z,3.60
2018-12-10T22:18:17.075Z,3.60
2018-12-10T22:20:44.303Z,3.50
2018-12-10T22:23:11.561Z,3.50
2018-12-10T22:25:38.851Z,3.60
2018-12-10T22:28:06.114Z,3.60
2018-12-10T22:30:33.353Z,3.60
2018-12-10T22:33:00.673Z,3.50
2018-12-10T22:35:27.983Z,3.50
2018-12-10T22:37:55.406Z,3.40
2018-12-10T22:40:22.656Z,3.30
2018-12-10T22:42:49.988Z,3.30
2018-12-10T22:45:17.192Z,3.20
2018-12-10T22:47:44.637Z,3.20
2018-12-10T22:50:11.841Z,3.10
2018-12-10T22:52:39.051Z,3.10
2018-12-10T22:55:06.409Z,3.10
2018-12-10T22:57:33.642Z,3.10
2018-12-10T23:00:01.409Z,3.10
2018-12-10T23:02:30.147Z,3.00
2018-12-10T23:04:57.489Z,3.00
2018-12-10T23:07:24.837Z,3.00
2018-12-10T23:09:54.026Z,3.00
2018-12-10T23:12:27.694Z,3.00
2018-12-10T23:14:55.712Z,3.00
2018-12-10T23:17:24.652Z,3.00
2018-12-10T23:19:51.917Z,3.00
2018-12-10T23:22:19.175Z,3.10
2018-12-10T23:24:46.470Z,3.10
2018-12-10T23:27:13.705Z,3.10
2018-12-10T23:29:40.980Z,3.10
2018-12-10T23:32:08.369Z,3.10
2018-12-10T23:34:35.592Z,3.10
2018-12-10T23:37:03.105Z,3.10
2018-12-10T23:39:30.366Z,3.10
2018-12-10T23:41:57.605Z,3.10
2018-12-10T23:44:30.764Z,3.20
2018-12-10T23:46:58.102Z,3.20
2018-12-10T23:49:25.321Z,3.20
2018-12-10T23:51:52.664Z,3.20
2018-12-10T23:54:19.889Z,3.20
2018-12-10T23:56:47.149Z,3.20
2018-12-10T23:59:14.390Z,3.20
